Terminal Aerodrome Forecast
Issued by NWS

Home | Current Version | Previous Version | Text Only | Print | Product List | Glossary Off
Versions: 1 2 3 4 5 6 7 8 9 10 11 12 13 14 15 16 17 18 19 20 21 22

000
FTUS43 KMPX 191500 AAB
TAFAXN
TAF AMD
KAXN 191545Z 1916/2012 32005KT P6SM SCT010 BKN040
     FM191800 32007KT P6SM SCT200
     FM200200 VRB02KT P6SM SCT200
     FM200600 00000KT 4SM BR SCT002
      TEMPO 2008/2012 1SM BR BKN001=

USA.gov is the U.S. government's official web portal to all federal, state and local government web resources and services.